createdAt,value
2019-05-13T00:01:49.665Z,96762.27
2019-05-13T00:04:19.651Z,96764.19
2019-05-13T00:06:54.254Z,96767.24
2019-05-13T00:09:21.422Z,96761.87
2019-05-13T00:11:53.968Z,96755.64
2019-05-13T00:14:23.915Z,96755.64
2019-05-13T00:16:54.167Z,96756.10
2019-05-13T00:19:24.256Z,96757.23
2019-05-13T00:21:54.689Z,96752.95
2019-05-13T00:24:25.224Z,96748.47
2019-05-13T00:26:55.270Z,96749.31
2019-05-13T00:29:25.292Z,96748.19
2019-05-13T00:31:55.207Z,96754.06
2019-05-13T00:34:25.218Z,96746.50
2019-05-13T00:37:07.636Z,96745.13
2019-05-13T00:39:26.918Z,96746.50
2019-05-13T00:41:56.935Z,96746.50
2019-05-13T00:44:26.924Z,96742.59
2019-05-13T00:46:56.953Z,96745.86
2019-05-13T00:49:26.935Z,96742.42
2019-05-13T00:51:57.053Z,96742.42
2019-05-13T00:54:27.030Z,96747.59
2019-05-13T00:56:57.044Z,96751.61
2019-05-13T00:59:27.330Z,96745.77
2019-05-13T01:01:57.642Z,96745.77
2019-05-13T01:04:27.645Z,96747.19
2019-05-13T01:06:57.960Z,96739.44
2019-05-13T01:09:28.246Z,96738.16
2019-05-13T01:11:58.491Z,96734.72
2019-05-13T01:14:28.480Z,96732.05
2019-05-13T01:16:58.502Z,96732.05
2019-05-13T01:19:28.487Z,96724.70
2019-05-13T01:21:58.516Z,96724.70
2019-05-13T01:24:28.795Z,96725.70
2019-05-13T01:26:58.805Z,96725.70
2019-05-13T01:29:28.922Z,96726.06
2019-05-13T01:31:58.934Z,96726.06
2019-05-13T01:34:29.143Z,96719.78
2019-05-13T01:36:59.154Z,96719.78
2019-05-13T01:39:29.138Z,96716.05
2019-05-13T01:41:59.458Z,96722.00
2019-05-13T01:44:29.440Z,96717.36
2019-05-13T01:46:59.753Z,96719.85
2019-05-13T01:49:30.037Z,96720.43
2019-05-13T01:52:00.419Z,96720.98
2019-05-13T01:54:30.409Z,96722.67
2019-05-13T01:57:00.436Z,96715.33
2019-05-13T01:59:30.641Z,96715.79
2019-05-13T02:02:00.731Z,96714.88
2019-05-13T02:04:30.715Z,96724.72
2019-05-13T02:07:01.053Z,96713.00
2019-05-13T02:09:33.673Z,96715.22
2019-05-13T02:12:05.059Z,96716.52
2019-05-13T02:14:35.612Z,96715.22
2019-05-13T02:17:06.004Z,96722.73
2019-05-13T02:19:36.358Z,96708.72
2019-05-13T02:22:06.672Z,96710.58
2019-05-13T02:24:36.983Z,96710.48
2019-05-13T02:27:07.267Z,96713.84
2019-05-13T02:29:37.207Z,96711.25
2019-05-13T02:32:07.191Z,96713.53
2019-05-13T02:34:37.175Z,96704.44
2019-05-13T02:37:07.415Z,96706.39
2019-05-13T02:39:37.435Z,96705.73
2019-05-13T02:42:07.582Z,96708.82
2019-05-13T02:44:37.896Z,96703.23
2019-05-13T02:47:07.980Z,96707.03
2019-05-13T02:49:38.030Z,96705.09
2019-05-13T02:52:08.347Z,96699.44
2019-05-13T02:54:38.328Z,96701.77
2019-05-13T02:57:08.351Z,96698.78
2019-05-13T02:59:38.331Z,96700.37
2019-05-13T03:02:08.357Z,96698.33
2019-05-13T03:04:38.362Z,96695.28
2019-05-13T03:07:08.347Z,96695.28
2019-05-13T03:09:38.366Z,96695.17
2019-05-13T03:12:08.643Z,96704.94
2019-05-13T03:14:38.966Z,96711.17
2019-05-13T03:17:13.704Z,96715.36
2019-05-13T03:19:43.780Z,96730.15
2019-05-13T03:22:13.840Z,96724.56
2019-05-13T03:24:44.174Z,96731.92
2019-05-13T03:27:14.158Z,96725.91
2019-05-13T03:29:44.339Z,96725.53
2019-05-13T03:32:16.762Z,96728.68
2019-05-13T03:34:47.021Z,96725.59
2019-05-13T03:37:18.342Z,96728.58
2019-05-13T03:39:52.210Z,96739.72
2019-05-13T03:42:24.055Z,96736.30
2019-05-13T03:44:55.841Z,96734.34
2019-05-13T03:47:26.692Z,96732.36
2019-05-13T03:50:03.074Z,96740.73
2019-05-13T03:52:33.735Z,96736.07
2019-05-13T03:55:03.860Z,96742.18
2019-05-13T03:57:34.122Z,96741.55
2019-05-13T04:00:06.052Z,96746.94
2019-05-13T04:02:36.128Z,96752.23
2019-05-13T04:05:07.207Z,96758.56
2019-05-13T04:07:37.232Z,96752.69
2019-05-13T04:10:07.612Z,96753.08
2019-05-13T04:12:37.628Z,96759.02
2019-05-13T04:15:12.383Z,96761.33
2019-05-13T04:17:42.810Z,96762.70
2019-05-13T04:20:13.876Z,96768.95
2019-05-13T04:22:43.891Z,96759.09
2019-05-13T04:25:13.970Z,96759.09
2019-05-13T04:27:43.982Z,96766.55
2019-05-13T04:30:14.467Z,96764.96
2019-05-13T04:32:44.500Z,96764.96
2019-05-13T04:35:14.455Z,96771.84
2019-05-13T04:37:44.584Z,96772.59
2019-05-13T04:40:14.553Z,96774.36
2019-05-13T04:42:44.866Z,96776.16
2019-05-13T04:45:14.847Z,96768.42
2019-05-13T04:47:45.154Z,96768.42
2019-05-13T04:50:15.136Z,96773.02
2019-05-13T04:52:45.222Z,96771.83
2019-05-13T04:55:15.217Z,96771.20
2019-05-13T04:57:45.239Z,96771.20
2019-05-13T05:00:16.682Z,96774.55
2019-05-13T05:02:58.604Z,96779.93
2019-05-13T05:05:43.394Z,96777.94
2019-05-13T05:08:22.805Z,96777.94
2019-05-13T05:11:15.395Z,96785.28
2019-05-13T05:13:56.038Z,96787.61
2019-05-13T05:16:32.696Z,96774.50
2019-05-13T05:19:25.342Z,96786.08
2019-05-13T05:22:13.559Z,96783.79
2019-05-13T05:25:13.398Z,96786.11
2019-05-13T05:27:51.893Z,96784.92
2019-05-13T05:30:41.304Z,96783.58
2019-05-13T05:33:42.099Z,96783.58
2019-05-13T05:36:32.125Z,96786.15
2019-05-13T05:39:22.646Z,96781.12
2019-05-13T05:41:55.456Z,96787.16
2019-05-13T05:44:28.640Z,96781.50
2019-05-13T05:47:02.889Z,96785.78
2019-05-13T05:49:33.269Z,96791.75
2019-05-13T05:52:06.201Z,96784.94
2019-05-13T05:54:39.128Z,96793.21
2019-05-13T05:57:11.858Z,96790.50
2019-05-13T05:59:42.611Z,96788.91
2019-05-13T06:02:13.033Z,96791.41
2019-05-13T06:04:44.705Z,96790.16
2019-05-13T06:07:16.191Z,96794.06
2019-05-13T06:09:46.173Z,96789.83
2019-05-13T06:12:16.693Z,96798.48
2019-05-13T06:14:48.550Z,96797.64
2019-05-13T06:17:18.560Z,96798.14
2019-05-13T06:19:48.551Z,96797.72
2019-05-13T06:22:18.621Z,96792.51
2019-05-13T06:24:48.626Z,96790.32
2019-05-13T06:27:21.173Z,96789.25
2019-05-13T06:29:52.765Z,96787.02
2019-05-13T06:32:26.042Z,96791.27
2019-05-13T06:34:53.677Z,96794.98
2019-05-13T06:37:23.701Z,96792.02
2019-05-13T06:39:53.685Z,96790.55
2019-05-13T06:42:23.697Z,96798.89
2019-05-13T06:44:53.610Z,96793.67
2019-05-13T06:47:23.627Z,96796.86
2019-05-13T06:49:53.969Z,96800.81
2019-05-13T06:52:23.992Z,96803.95
2019-05-13T06:54:54.042Z,96806.73
2019-05-13T06:57:24.017Z,96808.56
2019-05-13T06:59:53.876Z,96803.87
2019-05-13T07:02:23.862Z,96799.95
2019-05-13T07:04:53.866Z,96810.19
2019-05-13T07:07:23.837Z,96804.05
2019-05-13T07:09:53.854Z,96808.51
2019-05-13T07:12:23.825Z,96808.95
2019-05-13T07:14:53.903Z,96809.15
2019-05-13T07:17:23.827Z,96810.19
2019-05-13T07:19:53.906Z,96804.23
2019-05-13T07:22:23.887Z,96807.66
2019-05-13T07:24:53.834Z,96811.07
2019-05-13T07:27:23.853Z,96810.45
2019-05-13T07:29:55.705Z,96816.87
2019-05-13T07:32:25.533Z,96811.10
2019-05-13T07:34:55.535Z,96808.70
2019-05-13T07:37:27.019Z,96807.78
2019-05-13T07:39:57.197Z,96814.67
2019-05-13T07:42:27.102Z,96814.28
2019-05-13T07:44:57.156Z,96804.94
2019-05-13T07:47:27.136Z,96806.46
2019-05-13T07:49:57.071Z,96809.35
2019-05-13T07:52:27.051Z,96802.90
2019-05-13T07:54:57.061Z,96807.55
2019-05-13T07:57:27.030Z,96803.56
2019-05-13T07:59:56.980Z,96809.63
2019-05-13T08:02:26.890Z,96812.78
2019-05-13T08:04:56.784Z,96810.61
2019-05-13T08:07:26.718Z,96808.92
2019-05-13T08:10:00.117Z,96808.95
2019-05-13T08:12:28.408Z,96816.41
2019-05-13T08:14:58.413Z,96816.97
2019-05-13T08:17:28.395Z,96822.92
2019-05-13T08:19:58.415Z,96818.98
2019-05-13T08:22:28.420Z,96819.80
2019-05-13T08:24:58.400Z,96823.94
2019-05-13T08:27:30.693Z,96822.67
2019-05-13T08:30:01.656Z,96812.38
2019-05-13T08:32:31.857Z,96811.50
2019-05-13T08:35:08.640Z,96818.77
2019-05-13T08:37:33.542Z,96819.84
2019-05-13T08:40:05.124Z,96826.27
2019-05-13T08:42:35.235Z,96818.41
2019-05-13T08:45:07.194Z,96815.13
2019-05-13T08:47:37.271Z,96812.09
2019-05-13T08:50:07.608Z,96812.25
2019-05-13T08:52:37.658Z,96816.56
2019-05-13T08:55:07.736Z,96816.80
2019-05-13T08:57:37.750Z,96809.44
2019-05-13T09:00:08.616Z,96814.28
2019-05-13T09:02:38.627Z,96806.06
2019-05-13T09:05:08.701Z,96814.59
2019-05-13T09:07:41.134Z,96805.75
2019-05-13T09:10:12.455Z,96812.95
2019-05-13T09:12:43.451Z,96812.39
2019-05-13T09:15:13.644Z,96811.40
2019-05-13T09:17:43.720Z,96809.47
2019-05-13T09:20:13.699Z,96810.29
2019-05-13T09:22:43.599Z,96803.78
2019-05-13T09:25:13.612Z,96801.50
2019-05-13T09:27:43.519Z,96805.02
2019-05-13T09:30:15.190Z,96798.91
2019-05-13T09:32:45.184Z,96799.09
2019-05-13T09:35:15.197Z,96791.08
2019-05-13T09:37:45.173Z,96793.39
2019-05-13T09:40:15.281Z,96794.19
2019-05-13T09:42:51.547Z,96798.51
2019-05-13T09:45:17.009Z,96802.59
2019-05-13T09:47:47.182Z,96794.03
2019-05-13T09:50:28.476Z,96800.84
2019-05-13T09:52:51.714Z,96797.66
2019-05-13T09:55:28.472Z,96802.30
2019-05-13T09:57:53.763Z,96799.94
2019-05-13T10:00:24.284Z,96794.77
2019-05-13T10:02:54.923Z,96795.94
2019-05-13T10:05:25.019Z,96793.80
2019-05-13T10:07:54.993Z,96800.36
2019-05-13T10:10:27.250Z,96803.09
2019-05-13T10:13:09.272Z,96805.70
2019-05-13T10:15:32.588Z,96789.55
2019-05-13T10:18:02.527Z,96790.95
2019-05-13T10:20:47.810Z,96800.17
2019-05-13T10:23:17.778Z,96804.44
2019-05-13T10:25:52.178Z,96795.77
2019-05-13T10:28:22.044Z,96791.83
2019-05-13T10:30:53.074Z,96795.62
2019-05-13T10:33:24.259Z,96798.62
2019-05-13T10:35:54.501Z,96788.80
2019-05-13T10:38:27.838Z,96790.48
2019-05-13T10:40:57.002Z,96790.70
2019-05-13T10:43:31.696Z,96789.53
2019-05-13T10:45:58.886Z,96782.13
2019-05-13T10:48:28.961Z,96781.89
2019-05-13T10:50:58.940Z,96780.81
2019-05-13T10:53:31.788Z,96788.29
2019-05-13T10:56:03.227Z,96780.94
2019-05-13T10:58:32.558Z,96785.46
2019-05-13T11:01:05.436Z,96782.05
2019-05-13T11:03:35.664Z,96784.44
2019-05-13T11:06:06.046Z,96780.98
2019-05-13T11:08:36.022Z,96776.34
2019-05-13T11:11:06.031Z,96781.30
2019-05-13T11:13:52.101Z,96777.61
2019-05-13T11:16:07.900Z,96776.67
2019-05-13T11:18:37.941Z,96778.58
2019-05-13T11:21:07.948Z,96768.94
2019-05-13T11:23:37.859Z,96764.64
2019-05-13T11:26:08.951Z,96765.11
2019-05-13T11:28:39.520Z,96762.02
2019-05-13T11:31:09.525Z,96759.95
2019-05-13T11:33:42.270Z,96748.92
2019-05-13T11:36:12.909Z,96758.13
2019-05-13T11:38:43.458Z,96761.80
2019-05-13T11:41:13.785Z,96755.78
2019-05-13T11:43:46.788Z,96745.47
2019-05-13T11:46:16.940Z,96743.16
2019-05-13T11:48:46.921Z,96745.36
2019-05-13T11:51:16.929Z,96746.20
2019-05-13T11:53:46.905Z,96741.36
2019-05-13T11:56:16.926Z,96740.67
2019-05-13T11:58:47.273Z,96742.27
2019-05-13T12:01:18.021Z,96737.73
2019-05-13T12:03:47.989Z,96731.31
2019-05-13T12:06:22.909Z,96744.05
2019-05-13T12:08:54.973Z,96747.09
2019-05-13T12:11:33.112Z,96740.19
2019-05-13T12:14:02.325Z,96747.27
2019-05-13T12:16:35.038Z,96748.40
2019-05-13T12:19:04.267Z,96752.88
2019-05-13T12:21:41.672Z,96747.39
2019-05-13T12:24:10.563Z,96737.23
2019-05-13T12:26:37.591Z,96738.37
2019-05-13T12:29:15.913Z,96738.45
2019-05-13T12:31:42.277Z,96741.09
2019-05-13T12:34:13.270Z,96739.96
2019-05-13T12:36:43.874Z,96730.02
2019-05-13T12:39:14.581Z,96732.63
2019-05-13T12:41:44.914Z,96735.42
2019-05-13T12:44:15.162Z,96735.42
2019-05-13T12:46:50.144Z,96738.54
2019-05-13T12:49:17.336Z,96737.66
2019-05-13T12:51:47.364Z,96739.97
2019-05-13T12:54:17.518Z,96738.64
2019-05-13T12:56:47.736Z,96739.63
2019-05-13T12:59:17.874Z,96739.19
2019-05-13T13:01:48.419Z,96735.66
2019-05-13T13:04:18.467Z,96737.38
2019-05-13T13:06:48.547Z,96729.38
2019-05-13T13:09:20.038Z,96727.48
2019-05-13T13:11:53.970Z,96731.23
2019-05-13T13:14:24.129Z,96731.55
2019-05-13T13:16:56.075Z,96731.75
2019-05-13T13:19:26.152Z,96735.42
2019-05-13T13:22:02.952Z,96734.52
2019-05-13T13:24:31.648Z,96736.78
2019-05-13T13:27:00.729Z,96726.45
2019-05-13T13:29:33.893Z,96727.73
2019-05-13T13:32:03.088Z,96726.70
2019-05-13T13:34:33.845Z,96723.20
2019-05-13T13:37:05.319Z,96715.59
2019-05-13T13:39:35.602Z,96717.91
2019-05-13T13:42:06.098Z,96730.91
2019-05-13T13:44:36.325Z,96717.91
2019-05-13T13:47:06.394Z,96720.62
2019-05-13T13:49:37.238Z,96715.34
2019-05-13T13:52:07.914Z,96712.22
2019-05-13T13:54:38.216Z,96715.14
2019-05-13T13:57:08.685Z,96714.56
2019-05-13T14:00:11.802Z,96718.11
2019-05-13T14:02:13.479Z,96713.66
2019-05-13T14:04:43.212Z,96706.13
2019-05-13T14:07:30.095Z,96708.13
2019-05-13T14:09:45.999Z,96704.26
2019-05-13T14:12:17.346Z,96710.47
2019-05-13T14:14:47.320Z,96708.83
2019-05-13T14:17:17.346Z,96701.08
2019-05-13T14:19:47.321Z,96704.74
2019-05-13T14:22:17.338Z,96696.75
2019-05-13T14:24:47.489Z,96701.58
2019-05-13T14:27:17.499Z,96698.88
2019-05-13T14:29:56.309Z,96697.13
2019-05-13T14:32:19.184Z,96695.75
2019-05-13T14:34:49.225Z,96687.58
2019-05-13T14:37:19.231Z,96680.64
2019-05-13T14:39:49.127Z,96678.77
2019-05-13T14:42:19.126Z,96670.16
2019-05-13T14:44:49.101Z,96673.05
2019-05-13T14:47:19.034Z,96670.19
2019-05-13T14:49:51.507Z,96667.64
2019-05-13T14:52:22.224Z,96670.20
2019-05-13T14:54:52.464Z,96671.12
2019-05-13T14:57:22.408Z,96676.42
2019-05-13T14:59:52.380Z,96664.52
2019-05-13T15:02:22.393Z,96674.23
2019-05-13T15:04:52.508Z,96669.06
2019-05-13T15:07:22.491Z,96667.49
2019-05-13T15:09:52.550Z,96661.20
2019-05-13T15:12:22.547Z,96650.68
2019-05-13T15:14:52.644Z,96654.48
2019-05-13T15:17:22.634Z,96644.98
2019-05-13T15:19:52.789Z,96644.48
2019-05-13T15:22:23.147Z,96643.22
2019-05-13T15:24:53.165Z,96652.16
2019-05-13T15:27:23.238Z,96653.77
2019-05-13T15:29:53.204Z,96650.04
2019-05-13T15:32:23.156Z,96647.81
2019-05-13T15:34:53.126Z,96651.22
2019-05-13T15:37:23.212Z,96639.70
2019-05-13T15:39:53.188Z,96641.94
2019-05-13T15:42:23.203Z,96641.18
2019-05-13T15:44:53.210Z,96639.86
2019-05-13T15:47:26.782Z,96632.44
2019-05-13T15:49:55.245Z,96644.62
2019-05-13T15:52:25.250Z,96632.23
2019-05-13T15:54:55.214Z,96646.66
2019-05-13T15:57:25.190Z,96641.91
2019-05-13T15:59:55.162Z,96629.55
2019-05-13T16:02:25.178Z,96628.58
2019-05-13T16:05:01.241Z,96632.19
2019-05-13T16:07:26.787Z,96634.68
2019-05-13T16:09:56.736Z,96637.31
2019-05-13T16:12:26.713Z,96639.61
2019-05-13T16:14:56.915Z,96634.08
2019-05-13T16:17:40.587Z,96631.23
2019-05-13T16:20:01.161Z,96632.37
2019-05-13T16:22:31.635Z,96626.24
2019-05-13T16:25:01.909Z,96627.99
2019-05-13T16:27:32.591Z,96631.41
2019-05-13T16:30:02.695Z,96630.50
2019-05-13T16:32:32.716Z,96633.52
2019-05-13T16:35:03.020Z,96638.78
2019-05-13T16:37:33.453Z,96636.19
2019-05-13T16:40:04.457Z,96637.45
2019-05-13T16:42:34.500Z,96640.90
2019-05-13T16:45:06.111Z,96651.22
2019-05-13T16:47:36.008Z,96636.36
2019-05-13T16:50:11.500Z,96639.09
2019-05-13T16:52:41.892Z,96639.11
2019-05-13T16:55:12.809Z,96640.42
2019-05-13T16:57:43.015Z,96637.84
2019-05-13T17:00:14.493Z,96633.05
2019-05-13T17:02:44.570Z,96633.63
2019-05-13T17:05:14.677Z,96633.31
2019-05-13T17:07:44.721Z,96634.41
2019-05-13T17:10:15.437Z,96636.69
2019-05-13T17:12:45.475Z,96632.37
2019-05-13T17:15:15.474Z,96632.25
2019-05-13T17:17:45.513Z,96628.44
2019-05-13T17:20:15.516Z,96628.65
2019-05-13T17:22:45.564Z,96631.97
2019-05-13T17:25:15.569Z,96631.70
2019-05-13T17:27:45.645Z,96633.89
2019-05-13T17:30:16.324Z,96631.93
2019-05-13T17:32:46.335Z,96635.84
2019-05-13T17:35:16.477Z,96640.25
2019-05-13T17:37:46.506Z,96635.78
2019-05-13T17:40:16.555Z,96647.02
2019-05-13T17:42:46.554Z,96651.53
2019-05-13T17:45:16.534Z,96649.45
2019-05-13T17:47:46.535Z,96655.97
2019-05-13T17:50:16.633Z,96654.36
2019-05-13T17:52:46.637Z,96654.03
2019-05-13T17:55:16.606Z,96657.06
2019-05-13T17:57:46.681Z,96656.41
2019-05-13T18:00:17.149Z,96656.80
2019-05-13T18:02:47.153Z,96657.45
2019-05-13T18:05:17.116Z,96655.33
2019-05-13T18:07:47.123Z,96654.77
2019-05-13T18:10:17.628Z,96652.17
2019-05-13T18:12:47.748Z,96649.95
2019-05-13T18:15:17.817Z,96652.61
2019-05-13T18:17:47.786Z,96658.02
2019-05-13T18:20:17.974Z,96653.55
2019-05-13T18:22:47.981Z,96657.84
2019-05-13T18:25:17.956Z,96654.06
2019-05-13T18:27:47.969Z,96656.11
2019-05-13T18:30:17.934Z,96648.16
2019-05-13T18:32:48.956Z,96648.55
2019-05-13T18:35:18.860Z,96643.45
2019-05-13T18:37:48.861Z,96644.84
2019-05-13T18:40:19.073Z,96649.39
2019-05-13T18:42:51.294Z,96641.89
2019-05-13T18:45:22.068Z,96652.62
2019-05-13T18:47:52.162Z,96650.00
2019-05-13T18:50:22.167Z,96658.00
2019-05-13T18:52:52.551Z,96650.73
2019-05-13T18:55:22.817Z,96652.62
2019-05-13T18:57:52.791Z,96659.06
2019-05-13T19:00:24.141Z,96648.48
2019-05-13T19:02:54.109Z,96656.81
2019-05-13T19:05:24.186Z,96649.79
2019-05-13T19:07:54.165Z,96659.53
2019-05-13T19:10:24.232Z,96665.36
2019-05-13T19:12:54.221Z,96651.31
2019-05-13T19:15:24.298Z,96662.72
2019-05-13T19:17:54.133Z,96661.17
2019-05-13T19:20:24.202Z,96656.89
2019-05-13T19:22:54.176Z,96665.44
2019-05-13T19:25:24.176Z,96670.09
2019-05-13T19:27:54.148Z,96670.55
2019-05-13T19:30:24.159Z,96664.82
2019-05-13T19:32:54.201Z,96666.48
2019-05-13T19:35:24.283Z,96669.08
2019-05-13T19:37:54.362Z,96665.73
2019-05-13T19:40:24.374Z,96662.74
2019-05-13T19:42:54.416Z,96658.58
2019-05-13T19:45:24.431Z,96659.86
2019-05-13T19:47:54.474Z,96662.52
2019-05-13T19:50:24.549Z,96667.85
2019-05-13T19:52:54.589Z,96676.26
2019-05-13T19:55:24.665Z,96668.63
2019-05-13T19:57:54.632Z,96660.29
2019-05-13T20:00:24.710Z,96665.02
2019-05-13T20:02:54.686Z,96666.30
2019-05-13T20:05:24.696Z,96654.84
2019-05-13T20:07:54.671Z,96657.80
2019-05-13T20:10:24.669Z,96662.86
2019-05-13T20:12:54.573Z,96652.16
2019-05-13T20:15:24.621Z,96648.84
2019-05-13T20:17:54.563Z,96646.15
2019-05-13T20:20:24.550Z,96648.46
2019-05-13T20:22:54.626Z,96651.03
2019-05-13T20:25:24.595Z,96644.80
2019-05-13T20:27:54.594Z,96644.20
2019-05-13T20:30:24.565Z,96649.17
2019-05-13T20:32:54.497Z,96650.18
2019-05-13T20:35:24.533Z,96651.06
2019-05-13T20:37:54.676Z,96656.19
2019-05-13T20:40:24.652Z,96653.13
2019-05-13T20:42:54.591Z,96657.95
2019-05-13T20:45:24.558Z,96656.80
2019-05-13T20:47:54.497Z,96659.39
2019-05-13T20:50:24.472Z,96656.52
2019-05-13T20:52:54.477Z,96668.72
2019-05-13T20:55:24.448Z,96667.14
2019-05-13T20:57:54.516Z,96668.55
2019-05-13T21:00:24.623Z,96664.08
2019-05-13T21:02:54.695Z,96660.94
2019-05-13T21:05:24.596Z,96666.03
2019-05-13T21:07:54.490Z,96668.14
2019-05-13T21:10:24.496Z,96666.75
2019-05-13T21:12:54.464Z,96675.08
2019-05-13T21:15:24.535Z,96666.37
2019-05-13T21:17:54.435Z,96660.81
2019-05-13T21:20:25.969Z,96660.70
2019-05-13T21:22:56.125Z,96660.76
2019-05-13T21:25:26.134Z,96663.95
2019-05-13T21:27:56.133Z,96668.84
2019-05-13T21:30:26.139Z,96671.25
2019-05-13T21:32:56.119Z,96657.45
2019-05-13T21:35:26.125Z,96653.39
2019-05-13T21:37:56.031Z,96651.53
2019-05-13T21:40:26.038Z,96649.89
2019-05-13T21:42:56.015Z,96644.20
2019-05-13T21:45:26.026Z,96646.81
2019-05-13T21:47:56.029Z,96649.77
2019-05-13T21:50:36.130Z,96650.36
2019-05-13T21:52:57.746Z,96652.72
2019-05-13T21:55:27.674Z,96646.77
2019-05-13T21:57:57.685Z,96645.39
2019-05-13T22:00:29.397Z,96647.37
2019-05-13T22:03:02.094Z,96646.06
2019-05-13T22:05:32.096Z,96653.64
2019-05-13T22:08:02.173Z,96645.47
2019-05-13T22:10:32.216Z,96649.38
2019-05-13T22:13:02.227Z,96649.80
2019-05-13T22:15:32.416Z,96640.53
2019-05-13T22:18:02.653Z,96642.05
2019-05-13T22:20:46.614Z,96642.63
2019-05-13T22:23:04.980Z,96636.66
2019-05-13T22:25:34.992Z,96635.80
2019-05-13T22:28:05.037Z,96632.44
2019-05-13T22:30:35.043Z,96629.31
2019-05-13T22:33:05.016Z,96627.70
2019-05-13T22:35:35.024Z,96627.81
2019-05-13T22:38:04.989Z,96633.62
2019-05-13T22:40:35.001Z,96629.45
2019-05-13T22:43:04.982Z,96630.95
2019-05-13T22:45:35.000Z,96634.52
2019-05-13T22:48:05.004Z,96628.98
2019-05-13T22:50:34.975Z,96628.94
2019-05-13T22:53:04.971Z,96633.83
2019-05-13T22:55:35.007Z,96624.37
2019-05-13T22:58:05.080Z,96623.97
2019-05-13T23:00:35.116Z,96616.37
2019-05-13T23:03:05.184Z,96620.02
2019-05-13T23:05:36.220Z,96613.99
2019-05-13T23:08:06.221Z,96615.03
2019-05-13T23:10:36.186Z,96612.97
2019-05-13T23:13:07.359Z,96610.68
2019-05-13T23:15:37.439Z,96608.38
2019-05-13T23:18:07.342Z,96611.30
2019-05-13T23:20:37.424Z,96609.55
2019-05-13T23:23:07.459Z,96610.13
2019-05-13T23:25:39.942Z,96607.34
2019-05-13T23:28:11.099Z,96609.87
2019-05-13T23:30:41.757Z,96606.66
2019-05-13T23:33:11.862Z,96607.96
2019-05-13T23:35:42.047Z,96599.00
2019-05-13T23:38:12.295Z,96593.79
2019-05-13T23:40:42.299Z,96596.89
2019-05-13T23:43:12.263Z,96589.77
2019-05-13T23:45:42.268Z,96588.92
2019-05-13T23:48:12.305Z,96586.16
2019-05-13T23:50:42.306Z,96580.88
2019-05-13T23:53:12.272Z,96580.33
2019-05-13T23:55:42.290Z,96577.57
2019-05-13T23:58:12.327Z,96577.41
